sensor_id;sensor_type;location;lat;lon;timestamp;temperature;humidity
43414;DHT22;73638;49.676;8.606;2024-01-30T00:00:29;4.6628;71.0597
43414;DHT22;73638;49.676;8.606;2024-01-30T00:05:36;4.5933;71.1223
43414;DHT22;73638;49.676;8.606;2024-01-30T00:10:42;4.7322;71.5145
43414;DHT22;73638;49.676;8.606;2024-01-30T00:15:49;4.6227;71.8227
43414;DHT22;73638;49.676;8.606;2024-01-30T00:20:55;4.7188;71.8349
43414;DHT22;73638;49.676;8.606;2024-01-30T00:26:02;4.7616;71.3924
43414;DHT22;73638;49.676;8.606;2024-01-30T00:31:09;4.6281;70.8263
43414;DHT22;73638;49.676;8.606;2024-01-30T00:36:15;4.5506;70.4707
43414;DHT22;73638;49.676;8.606;2024-01-30T00:41:21;4.4331;70.2251
43414;DHT22;73638;49.676;8.606;2024-01-30T00:46:28;4.4198;70.605
43414;DHT22;73638;49.676;8.606;2024-01-30T00:51:34;4.4545;71.0719
43414;DHT22;73638;49.676;8.606;2024-01-30T00:56:40;4.3503;71.2444
43414;DHT22;73638;49.676;8.606;2024-01-30T01:01:47;4.4411;71.2688
43414;DHT22;73638;49.676;8.606;2024-01-30T01:06:53;4.2943;71.5389
43414;DHT22;73638;49.676;8.606;2024-01-30T01:11:59;4.2088;71.5389
43414;DHT22;73638;49.676;8.606;2024-01-30T01:17:06;4.3503;71.6136
43414;DHT22;73638;49.676;8.606;2024-01-30T01:22:18;4.2996;71.0842
43414;DHT22;73638;49.676;8.606;2024-01-30T01:27:19;4.2863;70.3471
43414;DHT22;73638;49.676;8.606;2024-01-30T01:32:25;4.1741;70.3349
43414;DHT22;73638;49.676;8.606;2024-01-30T01:37:42;4.1394;70.1625
43414;DHT22;73638;49.676;8.606;2024-01-30T01:42:43;3.9792;70.7683
43414;DHT22;73638;49.676;8.606;2024-01-30T01:47:47;4.0059;70.4112
43414;DHT22;73638;49.676;8.606;2024-01-30T01:52:51;4.0059;71.4061
43414;DHT22;73638;49.676;8.606;2024-01-30T01:57:58;4.07;71.5541
43414;DHT22;73638;49.676;8.606;2024-01-30T02:03:05;4.07;71.6777
43414;DHT22;73638;49.676;8.606;2024-01-30T02:08:11;4.118;71.4656
43414;DHT22;73638;49.676;8.606;2024-01-30T02:13:17;3.8964;71.6518
43414;DHT22;73638;49.676;8.606;2024-01-30T02:18:24;4.0433;71.5297
43414;DHT22;73638;49.676;8.606;2024-01-30T02:23:30;4.0833;71.0506
43414;DHT22;73638;49.676;8.606;2024-01-30T02:28:37;3.9925;70.6447
43414;DHT22;73638;49.676;8.606;2024-01-30T02:33:43;3.8537;70.3258
43414;DHT22;73638;49.676;8.606;2024-01-30T02:38:49;3.7549;70.4234
43414;DHT22;73638;49.676;8.606;2024-01-30T02:43:56;3.7629;70.6447
43414;DHT22;73638;49.676;8.606;2024-01-30T02:49:02;3.7709;70.3624
43414;DHT22;73638;49.676;8.606;2024-01-30T02:54:08;3.6587;70.9773
43414;DHT22;73638;49.676;8.606;2024-01-30T02:59:15;3.5599;71.4809
43414;DHT22;73638;49.676;8.606;2024-01-30T03:04:21;3.5599;71.4305
43414;DHT22;73638;49.676;8.606;2024-01-30T03:09:27;3.6294;71.751
43414;DHT22;73638;49.676;8.606;2024-01-30T03:14:34;3.624;71.664
43414;DHT22;73638;49.676;8.606;2024-01-30T03:19:40;3.7549;71.7632
43414;DHT22;73638;49.676;8.606;2024-01-30T03:24:47;3.8323;71.6518
43414;DHT22;73638;49.676;8.606;2024-01-30T03:29:54;3.7415;71.2963
43414;DHT22;73638;49.676;8.606;2024-01-30T03:35:00;3.6934;71.6899
43414;DHT22;73638;49.676;8.606;2024-01-30T03:40:07;3.9364;71.7998
43414;DHT22;73638;49.676;8.606;2024-01-30T03:45:13;3.6801;71.6152
43414;DHT22;73638;49.676;8.606;2024-01-30T03:50:19;3.7495;71.075
43414;DHT22;73638;49.676;8.606;2024-01-30T03:55:26;3.6721;70.5104
43414;DHT22;73638;49.676;8.606;2024-01-30T04:00:32;3.4771;70.3258
43414;DHT22;73638;49.676;8.606;2024-01-30T04:05:38;3.4424;70.547
43414;DHT22;73638;49.676;8.606;2024-01-30T04:10:44;3.2742;70.0298
43414;DHT22;73638;49.676;8.606;2024-01-30T04:15:51;3.154;69.8955
43414;DHT22;73638;49.676;8.606;2024-01-30T04:20:58;3.2876;70.1167
43414;DHT22;73638;49.676;8.606;2024-01-30T04:26:04;3.3303;69.8466
43414;DHT22;73638;49.676;8.606;2024-01-30T04:31:11;3.1834;69.7719
43414;DHT22;73638;49.676;8.606;2024-01-30T04:36:17;3.0633;69.6864
43414;DHT22;73638;49.676;8.606;2024-01-30T04:41:23;3.0018;69.3049
43414;DHT22;73638;49.676;8.606;2024-01-30T04:46:29;3.0793;70.1045
43414;DHT22;73638;49.676;8.606;2024-01-30T04:51:36;3.1968;70.6081
43414;DHT22;73638;49.676;8.606;2024-01-30T04:56:43;3.1621;71.0506
43414;DHT22;73638;49.676;8.606;2024-01-30T05:01:50;3.3703;71.0994
43414;DHT22;73638;49.676;8.606;2024-01-30T05:06:56;3.3169;71.2108
43414;DHT22;73638;49.676;8.606;2024-01-30T05:12:03;3.4211;71.3329
43414;DHT22;73638;49.676;8.606;2024-01-30T05:17:09;3.4611;71.5053
43414;DHT22;73638;49.676;8.606;2024-01-30T05:22:15;3.5946;71.4061
43414;DHT22;73638;49.676;8.606;2024-01-30T05:27:21;3.7068;71.2596
43414;DHT22;73638;49.676;8.606;2024-01-30T05:32:28;3.5332;71.3939
43414;DHT22;73638;49.676;8.606;2024-01-30T05:37:35;3.5039;71.1971
43414;DHT22;73638;49.676;8.606;2024-01-30T05:42:41;3.5172;71.4931
43414;DHT22;73638;49.676;8.606;2024-01-30T05:47:48;3.5679;71.1727
43414;DHT22;73638;49.676;8.606;2024-01-30T05:52:54;3.365;70.2266
43414;DHT22;73638;49.676;8.606;2024-01-30T05:58:01;3.3223;70.3502
43414;DHT22;73638;49.676;8.606;2024-01-30T06:03:07;3.3997;69.9809
43414;DHT22;73638;49.676;8.606;2024-01-30T06:08:14;3.4264;70.0053
43414;DHT22;73638;49.676;8.606;2024-01-30T06:13:20;3.2609;70.0801
43414;DHT22;73638;49.676;8.606;2024-01-30T06:18:26;3.1407;69.81
43414;DHT22;73638;49.676;8.606;2024-01-30T06:23:33;3.098;70.0298
43414;DHT22;73638;49.676;8.606;2024-01-30T06:28:39;3.3783;70.9773
43414;DHT22;73638;49.676;8.606;2024-01-30T06:33:46;3.3783;71.3451
43414;DHT22;73638;49.676;8.606;2024-01-30T06:38:52;3.4264;71.7876
43414;DHT22;73638;49.676;8.606;2024-01-30T06:43:59;3.4691;71.812
43414;DHT22;73638;49.676;8.606;2024-01-30T06:49:05;3.6587;72.2423
43414;DHT22;73638;49.676;8.606;2024-01-30T06:54:12;3.7976;72.3522
43414;DHT22;73638;49.676;8.606;2024-01-30T06:59:18;3.819;72.5368
43414;DHT22;73638;49.676;8.606;2024-01-30T07:04:25;4.0486;72.4392
43414;DHT22;73638;49.676;8.606;2024-01-30T07:09:31;4.1341;72.3751
43414;DHT22;73638;49.676;8.606;2024-01-30T07:14:38;4.1741;72.2774
43414;DHT22;73638;49.676;8.606;2024-01-30T07:19:45;4.2596;72.3995
43414;DHT22;73638;49.676;8.606;2024-01-30T07:24:51;4.377;72.018
43414;DHT22;73638;49.676;8.606;2024-01-30T07:29:58;4.4759;71.9326
43414;DHT22;73638;49.676;8.606;2024-01-30T07:35:09;4.4465;71.8227
43414;DHT22;73638;49.676;8.606;2024-01-30T07:40:11;4.4198;72.0806
43414;DHT22;73638;49.676;8.606;2024-01-30T07:45:18;4.6788;72.2515
43414;DHT22;73638;49.676;8.606;2024-01-30T07:50:24;4.8737;72.2896
43414;DHT22;73638;49.676;8.606;2024-01-30T07:55:31;4.9859;72.2637
43414;DHT22;73638;49.676;8.606;2024-01-30T08:00:37;5.1034;72.1538
43414;DHT22;73638;49.676;8.606;2024-01-30T08:05:44;5.2422;72.314
43414;DHT22;73638;49.676;8.606;2024-01-30T08:10:51;5.3891;72.3018
43414;DHT22;73638;49.676;8.606;2024-01-30T08:15:57;5.3197;72.0684
43414;DHT22;73638;49.676;8.606;2024-01-30T08:21:04;5.5573;71.6854
43414;DHT22;73638;49.676;8.606;2024-01-30T08:26:11;5.8778;71.6243
43414;DHT22;73638;49.676;8.606;2024-01-30T08:31:17;5.9552;72.079
43414;DHT22;73638;49.676;8.606;2024-01-30T08:36:24;6.3397;72.1904
43414;DHT22;73638;49.676;8.606;2024-01-30T08:41:31;6.249;71.6731
43414;DHT22;73638;49.676;8.606;2024-01-30T08:46:38;6.5854;71.2306
43414;DHT22;73638;49.676;8.606;2024-01-30T08:51:44;6.5908;71.194
43414;DHT22;73638;49.676;8.606;2024-01-30T08:56:51;6.6762;71.5755
43414;DHT22;73638;49.676;8.606;2024-01-30T09:02:12;7.0314;71.7891
43414;DHT22;73638;49.676;8.606;2024-01-30T09:07:04;7.3117;71.838
43414;DHT22;73638;49.676;8.606;2024-01-30T09:12:11;7.4292;71.9005
43414;DHT22;73638;49.676;8.606;2024-01-30T09:17:18;7.7657;71.5068
43414;DHT22;73638;49.676;8.606;2024-01-30T09:22:25;7.974;71.4214
43414;DHT22;73638;49.676;8.606;2024-01-30T09:27:31;8.0861;71.1009
43414;DHT22;73638;49.676;8.606;2024-01-30T09:32:39;8.1689;70.782
43414;DHT22;73638;49.676;8.606;2024-01-30T09:37:45;8.3799;70.4662
43414;DHT22;73638;49.676;8.606;2024-01-30T09:42:52;8.6095;69.7536
43414;DHT22;73638;49.676;8.606;2024-01-30T09:47:59;8.6442;68.6961
43414;DHT22;73638;49.676;8.606;2024-01-30T09:53:05;8.5882;68.5496
43414;DHT22;73638;49.676;8.606;2024-01-30T09:58:12;8.484;68.6107
43414;DHT22;73638;49.676;8.606;2024-01-30T10:03:18;8.7217;68.4016
43414;DHT22;73638;49.676;8.606;2024-01-30T10:08:26;8.7778;68.2048
43414;DHT22;73638;49.676;8.606;2024-01-30T10:13:31;9.0074;68.5496
43414;DHT22;73638;49.676;8.606;2024-01-30T10:18:41;9.2184;68.7221
43414;DHT22;73638;49.676;8.606;2024-01-30T10:23:45;9.456;68.7953
43414;DHT22;73638;49.676;8.606;2024-01-30T10:28:52;9.651;68.2109
43414;DHT22;73638;49.676;8.606;2024-01-30T10:34:16;9.8379;67.8538
43414;DHT22;73638;49.676;8.606;2024-01-30T10:39:06;9.9714;67.5227
43414;DHT22;73638;49.676;8.606;2024-01-30T10:44:18;10.153;67.3503
43414;DHT22;73638;49.676;8.606;2024-01-30T10:49:21;10.3078;66.9566
43414;DHT22;73638;49.676;8.606;2024-01-30T10:54:27;10.3826;66.5278
43414;DHT22;73638;49.676;8.606;2024-01-30T10:59:33;10.3693;66.4775
43414;DHT22;73638;49.676;8.606;2024-01-30T11:04:41;10.4601;66.5019
43414;DHT22;73638;49.676;8.606;2024-01-30T11:09:49;10.5589;66.1952
43414;DHT22;73638;49.676;8.606;2024-01-30T11:15:02;10.4601;65.1881
43414;DHT22;73638;49.676;8.606;2024-01-30T11:20:01;10.4253;65.2613
43414;DHT22;73638;49.676;8.606;2024-01-30T11:25:11;10.4948;64.7944
43414;DHT22;73638;49.676;8.606;2024-01-30T11:30:23;10.5375;65.6428
43414;DHT22;73638;49.676;8.606;2024-01-30T11:35:21;10.7271;65.5558
43414;DHT22;73638;49.676;8.606;2024-01-30T11:40:29;10.8927;64.3885
43414;DHT22;73638;49.676;8.606;2024-01-30T11:45:35;10.9915;64.3809
43414;DHT22;73638;49.676;8.606;2024-01-30T11:50:43;11.0822;63.8148
43414;DHT22;73638;49.676;8.606;2024-01-30T11:55:50;11.1383;63.5813
43414;DHT22;73638;49.676;8.606;2024-01-30T12:00:55;11.1463;63.3722
43414;DHT22;73638;49.676;8.606;2024-01-30T12:06:03;11.2558;63.09
43414;DHT22;73638;49.676;8.606;2024-01-30T12:11:08;11.173;62.1805
43414;DHT22;73638;49.676;8.606;2024-01-30T12:16:15;11.1303;62.8687
43414;DHT22;73638;49.676;8.606;2024-01-30T12:21:22;11.0903;63.3722
43414;DHT22;73638;49.676;8.606;2024-01-30T12:26:28;11.0555;62.9801
43414;DHT22;73638;49.676;8.606;2024-01-30T12:31:36;11.0128;62.6856
43414;DHT22;73638;49.676;8.606;2024-01-30T12:36:42;10.8179;63.1113
43414;DHT22;73638;49.676;8.606;2024-01-30T12:41:48;10.8579;63.0625
43414;DHT22;73638;49.676;8.606;2024-01-30T12:46:55;10.9434;63.5691
43414;DHT22;73638;49.676;8.606;2024-01-30T12:52:02;11.1383;63.3722
43414;DHT22;73638;49.676;8.606;2024-01-30T12:57:09;11.2985;63.0655
43414;DHT22;73638;49.676;8.606;2024-01-30T13:02:16;11.4534;62.5986
43414;DHT22;73638;49.676;8.606;2024-01-30T13:07:23;11.6003;62.562
43414;DHT22;73638;49.676;8.606;2024-01-30T13:12:30;11.6136;62.562
43414;DHT22;73638;49.676;8.606;2024-01-30T13:17:37;11.8219;62.4643
43414;DHT22;73638;49.676;8.606;2024-01-30T13:22:47;11.8914;62.8931
43414;DHT22;73638;49.676;8.606;2024-01-30T13:27:50;11.9127;62.3652
43414;DHT22;73638;49.676;8.606;2024-01-30T13:32:57;11.9474;62.2919
43414;DHT22;73638;49.676;8.606;2024-01-30T13:38:04;11.9982;62.6856
43414;DHT22;73638;49.676;8.606;2024-01-30T13:43:11;12.0329;62.9679
43414;DHT22;73638;49.676;8.606;2024-01-30T13:48:17;12.1504;62.9053
43414;DHT22;73638;49.676;8.606;2024-01-30T13:53:24;12.1637;63.1022
43414;DHT22;73638;49.676;8.606;2024-01-30T13:58:31;11.9074;62.3529
43414;DHT22;73638;49.676;8.606;2024-01-30T14:03:37;11.5576;62.5254
43414;DHT22;73638;49.676;8.606;2024-01-30T14:08:50;11.3333;63.5569
43414;DHT22;73638;49.676;8.606;2024-01-30T14:13:50;11.424;64.1352
43414;DHT22;73638;49.676;8.606;2024-01-30T14:18:57;11.5282;63.7903
43414;DHT22;73638;49.676;8.606;2024-01-30T14:24:05;11.6136;63.7659
43414;DHT22;73638;49.676;8.606;2024-01-30T14:29:11;11.6911;63.7903
43414;DHT22;73638;49.676;8.606;2024-01-30T14:34:18;11.5789;63.4226
43414;DHT22;73638;49.676;8.606;2024-01-30T14:39:24;11.4321;63.1266
43414;DHT22;73638;49.676;8.606;2024-01-30T14:44:31;11.2932;63.3982
43414;DHT22;73638;49.676;8.606;2024-01-30T14:49:38;11.0956;64.2084
43414;DHT22;73638;49.676;8.606;2024-01-30T14:54:44;11.1303;65.1911
43414;DHT22;73638;49.676;8.606;2024-01-30T14:59:51;11.1944;65.2033
43414;DHT22;73638;49.676;8.606;2024-01-30T15:04:58;11.2371;65.3147
43414;DHT22;73638;49.676;8.606;2024-01-30T15:10:06;11.3279;65.1789
43414;DHT22;73638;49.676;8.606;2024-01-30T15:15:12;11.376;65.2277
43414;DHT22;73638;49.676;8.606;2024-01-30T15:20:18;11.3413;65.4124
43414;DHT22;73638;49.676;8.606;2024-01-30T15:25:25;11.3279;65.3147
43414;DHT22;73638;49.676;8.606;2024-01-30T15:30:32;11.2505;65.8183
43414;DHT22;73638;49.676;8.606;2024-01-30T15:35:39;11.0689;65.2781
43414;DHT22;73638;49.676;8.606;2024-01-30T15:40:45;10.8873;65.3468
43414;DHT22;73638;49.676;8.606;2024-01-30T15:45:52;10.7404;65.6306
43414;DHT22;73638;49.676;8.606;2024-01-30T15:50:59;10.6977;66.6865
43414;DHT22;73638;49.676;8.606;2024-01-30T15:56:06;10.7965;66.92
43414;DHT22;73638;49.676;8.606;2024-01-30T16:01:12;10.8232;67.1778
43414;DHT22;73638;49.676;8.606;2024-01-30T16:06:19;10.874;67.0436
43414;DHT22;73638;49.676;8.606;2024-01-30T16:11:26;10.8232;67.0314
43414;DHT22;73638;49.676;8.606;2024-01-30T16:16:33;10.914;67.2892
43414;DHT22;73638;49.676;8.606;2024-01-30T16:21:39;10.8927;67.0924
43414;DHT22;73638;49.676;8.606;2024-01-30T16:26:46;10.9087;67.2648
43414;DHT22;73638;49.676;8.606;2024-01-30T16:31:53;10.9487;66.7765
43414;DHT22;73638;49.676;8.606;2024-01-30T16:37:02;10.9701;66.949
43414;DHT22;73638;49.676;8.606;2024-01-30T16:42:08;10.9434;66.8498
43414;DHT22;73638;49.676;8.606;2024-01-30T16:47:15;11.0048;66.9612
43414;DHT22;73638;49.676;8.606;2024-01-30T16:52:22;10.9567;66.6789
43414;DHT22;73638;49.676;8.606;2024-01-30T16:57:29;10.8526;67.1656
43414;DHT22;73638;49.676;8.606;2024-01-30T17:02:35;10.7271;67.9774
43414;DHT22;73638;49.676;8.606;2024-01-30T17:07:42;10.8392;68.0751
43414;DHT22;73638;49.676;8.606;2024-01-30T17:12:49;10.8232;68.1117
43414;DHT22;73638;49.676;8.606;2024-01-30T17:17:58;10.8526;68.1743
43414;DHT22;73638;49.676;8.606;2024-01-30T17:23:04;10.8579;68.0995
43414;DHT22;73638;49.676;8.606;2024-01-30T17:28:11;11.0048;67.6738
43414;DHT22;73638;49.676;8.606;2024-01-30T17:33:18;10.93;68.1498
43414;DHT22;73638;49.676;8.606;2024-01-30T17:38:25;10.8873;67.6326
43414;DHT22;73638;49.676;8.606;2024-01-30T17:43:31;10.6149;67.5837
43414;DHT22;73638;49.676;8.606;2024-01-30T17:48:38;10.3773;67.8416
43414;DHT22;73638;49.676;8.606;2024-01-30T17:53:45;10.3826;68.5054
43414;DHT22;73638;49.676;8.606;2024-01-30T17:58:51;10.3773;69.5125
43414;DHT22;73638;49.676;8.606;2024-01-30T18:03:58;10.3559;69.5628
43414;DHT22;73638;49.676;8.606;2024-01-30T18:09:06;10.42;69.4881
43414;DHT22;73638;49.676;8.606;2024-01-30T18:14:12;10.4948;69.5003
43414;DHT22;73638;49.676;8.606;2024-01-30T18:19:19;10.4387;69.6239
43414;DHT22;73638;49.676;8.606;2024-01-30T18:24:25;10.4948;69.3294
43414;DHT22;73638;49.676;8.606;2024-01-30T18:29:31;10.5455;69.4148
43414;DHT22;73638;49.676;8.606;2024-01-30T18:34:38;10.4547;69.5628
43414;DHT22;73638;49.676;8.606;2024-01-30T18:39:45;10.5241;69.4514
43414;DHT22;73638;49.676;8.606;2024-01-30T18:44:52;10.5028;68.9845
43414;DHT22;73638;49.676;8.606;2024-01-30T18:49:59;10.2785;68.603
43414;DHT22;73638;49.676;8.606;2024-01-30T18:55:06;10.2998;68.9723
43414;DHT22;73638;49.676;8.606;2024-01-30T19:00:13;10.3212;69.6727
43414;DHT22;73638;49.676;8.606;2024-01-30T19:05:19;10.412;69.9062
43414;DHT22;73638;49.676;8.606;2024-01-30T19:10:40;10.4467;70.042
43414;DHT22;73638;49.676;8.606;2024-01-30T19:15:34;10.5108;69.9916
43414;DHT22;73638;49.676;8.606;2024-01-30T19:20:40;10.5509;69.8695
43414;DHT22;73638;49.676;8.606;2024-01-30T19:25:52;10.5856;70.0298
43414;DHT22;73638;49.676;8.606;2024-01-30T19:30:53;10.6497;70.1396
43414;DHT22;73638;49.676;8.606;2024-01-30T19:36:00;10.6203;69.8329
43414;DHT22;73638;49.676;8.606;2024-01-30T19:41:10;10.5295;69.279
43414;DHT22;73638;49.676;8.606;2024-01-30T19:46:13;10.4253;69.0211
43414;DHT22;73638;49.676;8.606;2024-01-30T19:51:19;10.42;69.1325
43414;DHT22;73638;49.676;8.606;2024-01-30T19:56:26;10.3906;69.8085
43414;DHT22;73638;49.676;8.606;2024-01-30T20:01:33;10.4547;70.5821
43414;DHT22;73638;49.676;8.606;2024-01-30T20:06:42;10.4601;70.7668
43414;DHT22;73638;49.676;8.606;2024-01-30T20:11:47;10.5856;70.8278
43414;DHT22;73638;49.676;8.606;2024-01-30T20:16:54;10.6416;71.1223
43414;DHT22;73638;49.676;8.606;2024-01-30T20:22:00;10.5856;70.6798
43414;DHT22;73638;49.676;8.606;2024-01-30T20:27:07;10.7057;70.8644
43414;DHT22;73638;49.676;8.606;2024-01-30T20:32:13;10.7885;70.9133
43414;DHT22;73638;49.676;8.606;2024-01-30T20:37:20;10.7538;70.901
43414;DHT22;73638;49.676;8.606;2024-01-30T20:42:27;10.6764;70.2632
43414;DHT22;73638;49.676;8.606;2024-01-30T20:47:36;10.5509;69.955
43414;DHT22;73638;49.676;8.606;2024-01-30T20:52:42;10.3773;70.3609
43414;DHT22;73638;49.676;8.606;2024-01-30T20:57:49;10.4814;71.2459
43414;DHT22;73638;49.676;8.606;2024-01-30T21:02:56;10.5856;71.6258
43414;DHT22;73638;49.676;8.606;2024-01-30T21:08:03;10.6844;71.4916
43414;DHT22;73638;49.676;8.606;2024-01-30T21:13:09;10.671;71.6014
43414;DHT22;73638;49.676;8.606;2024-01-30T21:18:16;10.6149;71.7006
43414;DHT22;73638;49.676;8.606;2024-01-30T21:23:22;10.671;71.664
43414;DHT22;73638;49.676;8.606;2024-01-30T21:28:29;10.6283;70.8034
43414;DHT22;73638;49.676;8.606;2024-01-30T21:33:36;10.5295;70.7042
43414;DHT22;73638;49.676;8.606;2024-01-30T21:38:42;10.3773;70.5455
43414;DHT22;73638;49.676;8.606;2024-01-30T21:43:49;10.3773;71.4427
43414;DHT22;73638;49.676;8.606;2024-01-30T21:48:56;10.42;71.9219
43414;DHT22;73638;49.676;8.606;2024-01-30T21:54:02;10.4814;72.314
43414;DHT22;73638;49.676;8.606;2024-01-30T21:59:09;10.5509;72.5734
43414;DHT22;73638;49.676;8.606;2024-01-30T22:04:16;10.5241;72.7321
43414;DHT22;73638;49.676;8.606;2024-01-30T22:09:22;10.5455;72.7199
43414;DHT22;73638;49.676;8.606;2024-01-30T22:14:29;10.5802;72.4498
43414;DHT22;73638;49.676;8.606;2024-01-30T22:19:36;10.5509;72.4987
43414;DHT22;73638;49.676;8.606;2024-01-30T22:24:42;10.671;72.6711
43414;DHT22;73638;49.676;8.606;2024-01-30T22:29:51;10.6577;71.9341
43414;DHT22;73638;49.676;8.606;2024-01-30T22:34:56;10.4467;71.6381
43414;DHT22;73638;49.676;8.606;2024-01-30T22:40:03;10.3292;71.4916
43414;DHT22;73638;49.676;8.606;2024-01-30T22:45:09;10.2304;71.3802
43414;DHT22;73638;49.676;8.606;2024-01-30T22:50:15;10.2384;72.1675
43414;DHT22;73638;49.676;8.606;2024-01-30T22:55:22;10.404;72.6223
43414;DHT22;73638;49.676;8.606;2024-01-30T23:00:29;10.4948;72.8435
43414;DHT22;73638;49.676;8.606;2024-01-30T23:05:36;10.5241;73.0144
43414;DHT22;73638;49.676;8.606;2024-01-30T23:10:42;10.5108;73.0648
43414;DHT22;73638;49.676;8.606;2024-01-30T23:15:49;10.5856;73.0022
43414;DHT22;73638;49.676;8.606;2024-01-30T23:20:56;10.6577;73.1258
43414;DHT22;73638;49.676;8.606;2024-01-30T23:26:03;10.6149;73.0144
43414;DHT22;73638;49.676;8.606;2024-01-30T23:31:09;10.6203;72.3262
43414;DHT22;73638;49.676;8.606;2024-01-30T23:36:16;10.5161;71.8853
43414;DHT22;73638;49.676;8.606;2024-01-30T23:41:23;10.3132;71.6381
43414;DHT22;73638;49.676;8.606;2024-01-30T23:46:29;10.3132;72.4376
43414;DHT22;73638;49.676;8.606;2024-01-30T23:51:36;10.3212;72.8313
43414;DHT22;73638;49.676;8.606;2024-01-30T23:56:43;10.3986;73.2479
